createdAt,value
2023-04-03T00:01:19.508Z,83.28
2023-04-03T00:03:47.027Z,83.13
2023-04-03T00:06:14.631Z,83.12
2023-04-03T00:08:42.390Z,83.20
2023-04-03T00:11:10.464Z,83.18
2023-04-03T00:13:39.929Z,83.31
2023-04-03T00:16:08.493Z,83.10
2023-04-03T00:18:36.640Z,83.12
2023-04-03T00:21:04.753Z,83.08
2023-04-03T00:23:32.344Z,83.10
2023-04-03T00:25:59.664Z,82.94
2023-04-03T00:28:28.204Z,82.94
2023-04-03T00:30:55.715Z,83.47
2023-04-03T00:33:23.165Z,82.65
2023-04-03T00:35:50.940Z,83.28
2023-04-03T00:38:19.296Z,83.03
2023-04-03T00:40:50.599Z,83.17
2023-04-03T00:43:28.021Z,83.25
2023-04-03T00:45:58.543Z,83.05
2023-04-03T00:48:46.421Z,82.99
2023-04-03T00:51:24.490Z,83.42
2023-04-03T00:53:59.370Z,83.29
2023-04-03T00:56:31.450Z,83.12
2023-04-03T00:59:01.128Z,83.08
2023-04-03T01:04:31.459Z,83.27
2023-04-03T01:07:01.157Z,83.17
2023-04-03T01:09:30.544Z,83.17
2023-04-03T01:12:19.569Z,83.64
2023-04-03T01:14:47.858Z,83.19
2023-04-03T01:17:42.242Z,83.56
2023-04-03T01:20:28.295Z,82.78
2023-04-03T01:23:12.448Z,82.91
2023-04-03T01:25:57.024Z,82.97
2023-04-03T01:28:33.127Z,83.53
2023-04-03T01:31:37.437Z,83.27
2023-04-03T01:34:07.300Z,83.41
2023-04-03T01:36:34.692Z,82.97
2023-04-03T01:39:02.924Z,83.53
2023-04-03T01:41:31.286Z,83.19
2023-04-03T01:43:58.737Z,82.94
2023-04-03T01:46:26.954Z,83.16
2023-04-03T01:48:54.255Z,83.21
2023-04-03T01:51:21.554Z,83.14
2023-04-03T01:53:48.883Z,82.92
2023-04-03T01:56:16.263Z,83.22
2023-04-03T01:58:43.975Z,83.06
2023-04-03T02:01:11.759Z,83.21
2023-04-03T02:03:39.512Z,83.17
2023-04-03T02:06:07.364Z,82.86
2023-04-03T02:08:35.212Z,83.17
2023-04-03T02:11:04.443Z,83.00
2023-04-03T02:13:32.027Z,83.20
2023-04-03T02:16:00.528Z,83.15
2023-04-03T02:18:27.811Z,83.22
2023-04-03T02:20:58.434Z,82.72
2023-04-03T02:23:25.921Z,83.08
2023-04-03T02:25:53.372Z,83.05
2023-04-03T02:28:21.136Z,83.38
2023-04-03T02:30:48.466Z,83.01
2023-04-03T02:33:15.848Z,82.93
2023-04-03T02:35:43.484Z,83.05
2023-04-03T02:38:10.859Z,83.33
2023-04-03T02:40:38.458Z,82.97
2023-04-03T02:43:06.372Z,82.73
2023-04-03T02:45:33.648Z,83.00
2023-04-03T02:48:01.304Z,83.20
2023-04-03T02:50:28.741Z,83.15
2023-04-03T02:52:56.091Z,83.03
2023-04-03T02:55:23.614Z,83.16
2023-04-03T02:57:50.803Z,83.03
2023-04-03T03:00:18.282Z,83.18
2023-04-03T03:02:45.962Z,82.94
2023-04-03T03:05:13.585Z,83.36
2023-04-03T03:07:41.450Z,83.19
2023-04-03T03:10:09.205Z,82.73
2023-04-03T03:12:36.589Z,82.83
2023-04-03T03:15:04.543Z,83.16
2023-04-03T03:17:32.125Z,82.62
2023-04-03T03:19:59.571Z,82.94
2023-04-03T03:22:27.881Z,82.77
2023-04-03T03:24:56.954Z,82.87
2023-04-03T03:27:25.504Z,82.76
2023-04-03T03:29:53.162Z,83.02
2023-04-03T03:32:20.983Z,83.49
2023-04-03T03:34:48.295Z,83.50
2023-04-03T03:37:15.538Z,82.99
2023-04-03T03:39:42.966Z,82.78
2023-04-03T03:42:10.169Z,82.92
2023-04-03T03:44:37.473Z,83.20
2023-04-03T03:47:05.224Z,83.70
2023-04-03T03:49:32.442Z,83.35
2023-04-03T03:52:00.120Z,83.21
2023-04-03T03:54:27.643Z,83.04
2023-04-03T03:56:55.001Z,83.10
2023-04-03T03:59:22.380Z,82.63
2023-04-03T04:01:50.449Z,82.57
2023-04-03T04:04:17.766Z,83.14
2023-04-03T04:06:45.033Z,82.56
2023-04-03T04:09:13.058Z,82.87
2023-04-03T04:11:41.765Z,82.53
2023-04-03T04:14:11.784Z,82.04
2023-04-03T04:16:39.221Z,82.38
2023-04-03T04:19:08.425Z,82.82
2023-04-03T04:21:36.655Z,82.79
2023-04-03T04:24:04.272Z,82.83
2023-04-03T04:26:31.583Z,82.60
2023-04-03T04:28:58.972Z,82.80
2023-04-03T04:31:26.829Z,82.72
2023-04-03T04:33:54.561Z,82.36
2023-04-03T04:36:22.780Z,82.58
2023-04-03T04:38:54.462Z,82.68
2023-04-03T04:41:23.857Z,82.50
2023-04-03T04:43:52.212Z,82.26
2023-04-03T04:46:20.878Z,82.67
2023-04-03T04:48:49.700Z,82.66
2023-04-03T04:51:17.219Z,82.36
2023-04-03T04:53:44.866Z,82.66
2023-04-03T04:56:12.362Z,82.70
2023-04-03T04:58:40.139Z,82.65
2023-04-03T05:01:11.245Z,82.41
2023-04-03T05:03:38.824Z,82.23
2023-04-03T05:06:06.810Z,82.12
2023-04-03T05:08:34.628Z,82.07
2023-04-03T05:11:02.174Z,82.25
2023-04-03T05:13:30.208Z,81.97
2023-04-03T05:15:59.308Z,81.39
2023-04-03T05:18:27.796Z,81.72
2023-04-03T05:20:56.691Z,81.66
2023-04-03T05:23:34.333Z,81.69
2023-04-03T05:26:23.084Z,81.87
2023-04-03T05:28:54.676Z,81.86
2023-04-03T05:32:06.904Z,81.69
2023-04-03T05:35:01.375Z,81.85
2023-04-03T05:38:08.703Z,81.80
2023-04-03T05:41:05.034Z,81.87
2023-04-03T05:44:33.935Z,81.46
2023-04-03T05:48:22.000Z,81.60
2023-04-03T05:52:12.377Z,81.38
2023-04-03T05:56:02.869Z,81.19
2023-04-03T05:59:50.542Z,81.00
2023-04-03T06:03:39.570Z,81.08
2023-04-03T06:07:05.826Z,81.18
2023-04-03T06:10:48.430Z,81.02
2023-04-03T06:14:31.791Z,80.74
2023-04-03T06:18:09.385Z,80.57
2023-04-03T06:20:56.768Z,80.40
2023-04-03T06:23:26.978Z,80.62
2023-04-03T06:25:54.867Z,80.47
2023-04-03T06:28:24.010Z,80.28
2023-04-03T06:30:52.860Z,80.10
2023-04-03T06:33:21.194Z,79.63
2023-04-03T06:35:48.869Z,80.17
2023-04-03T06:38:16.419Z,80.39
2023-04-03T06:40:43.837Z,79.96
2023-04-03T06:43:12.553Z,80.19
2023-04-03T06:45:41.827Z,79.90
2023-04-03T06:48:35.201Z,79.94
2023-04-03T06:52:05.373Z,80.13
2023-04-03T06:55:15.833Z,79.74
2023-04-03T06:57:47.761Z,79.97
2023-04-03T07:00:22.823Z,79.75
2023-04-03T07:03:19.683Z,79.13
2023-04-03T07:06:05.831Z,79.22
2023-04-03T07:08:44.204Z,79.06
2023-04-03T07:11:52.618Z,78.65
2023-04-03T07:14:20.380Z,78.50
2023-04-03T07:16:48.195Z,78.09
2023-04-03T07:19:15.881Z,77.31
2023-04-03T07:21:43.524Z,78.29
2023-04-03T07:24:13.126Z,77.72
2023-04-03T07:26:43.438Z,77.39
2023-04-03T07:29:11.850Z,77.90
2023-04-03T07:31:41.708Z,78.18
2023-04-03T07:34:11.262Z,77.69
2023-04-03T07:36:41.550Z,77.48
2023-04-03T07:39:09.653Z,76.93
2023-04-03T07:41:36.936Z,76.86
2023-04-03T07:44:04.653Z,77.53
2023-04-03T07:46:32.488Z,77.03
2023-04-03T07:48:59.744Z,77.19
2023-04-03T07:51:29.185Z,76.35
2023-04-03T07:54:01.186Z,75.60
2023-04-03T07:56:29.271Z,76.22
2023-04-03T07:58:57.783Z,76.05
2023-04-03T08:01:30.341Z,76.43
2023-04-03T08:04:04.690Z,76.36
2023-04-03T08:07:36.390Z,75.98
2023-04-03T08:10:23.341Z,75.05
2023-04-03T08:13:54.968Z,74.77
2023-04-03T08:16:35.127Z,73.71
2023-04-03T08:19:26.502Z,73.64
2023-04-03T08:21:58.731Z,73.91
2023-04-03T08:24:27.105Z,73.06
2023-04-03T08:27:06.619Z,71.92
2023-04-03T08:29:36.507Z,73.30
2023-04-03T08:32:04.437Z,72.54
2023-04-03T08:34:53.840Z,72.44
2023-04-03T08:37:26.598Z,71.69
2023-04-03T08:40:11.070Z,72.45
2023-04-03T08:42:51.763Z,71.41
2023-04-03T08:45:27.865Z,71.60
2023-04-03T08:48:58.202Z,70.82
2023-04-03T08:51:34.348Z,70.33
2023-04-03T08:54:11.019Z,71.61
2023-04-03T08:56:42.575Z,71.48
2023-04-03T08:59:19.228Z,71.28
2023-04-03T09:02:11.571Z,70.63
2023-04-03T09:04:57.033Z,71.17
2023-04-03T09:07:38.482Z,70.45
2023-04-03T09:10:18.297Z,71.08
2023-04-03T09:13:07.145Z,70.31
2023-04-03T09:15:38.875Z,70.68
2023-04-03T09:18:28.820Z,71.66
2023-04-03T09:21:15.454Z,70.58
2023-04-03T09:23:56.765Z,69.38
2023-04-03T09:27:00.522Z,68.90
2023-04-03T09:29:28.906Z,69.03
2023-04-03T09:32:04.819Z,69.42
2023-04-03T09:34:43.437Z,70.43
2023-04-03T09:37:39.815Z,66.92
2023-04-03T09:40:28.075Z,67.57
2023-04-03T09:43:02.147Z,66.70
2023-04-03T09:45:35.374Z,66.08
2023-04-03T09:48:30.109Z,67.20
2023-04-03T09:51:28.193Z,67.38
2023-04-03T09:53:58.228Z,68.40
2023-04-03T09:56:40.793Z,66.72
2023-04-03T10:00:03.195Z,66.33
2023-04-03T10:03:34.665Z,65.70
2023-04-03T10:07:04.919Z,65.71
2023-04-03T10:11:01.361Z,64.49
2023-04-03T10:14:51.903Z,63.61
2023-04-03T10:18:24.293Z,64.54
2023-04-03T10:22:16.693Z,65.29
2023-04-03T10:25:07.116Z,63.99
2023-04-03T10:28:33.044Z,62.69
2023-04-03T10:32:11.040Z,63.28
2023-04-03T10:35:05.649Z,62.71
2023-04-03T10:38:18.767Z,61.33
2023-04-03T10:41:25.548Z,62.31
2023-04-03T10:44:28.778Z,62.91
2023-04-03T10:47:54.500Z,62.53
2023-04-03T10:51:17.084Z,62.02
2023-04-03T10:54:18.942Z,61.67
2023-04-03T10:57:35.063Z,60.88
2023-04-03T11:00:46.165Z,59.24
2023-04-03T11:04:22.565Z,60.46
2023-04-03T11:07:40.600Z,60.01
2023-04-03T11:10:28.898Z,59.30
2023-04-03T11:13:35.112Z,58.84
2023-04-03T11:16:10.957Z,58.97
2023-04-03T11:18:58.999Z,59.29
2023-04-03T11:21:38.971Z,59.17
2023-04-03T11:24:17.097Z,60.67
2023-04-03T11:27:07.125Z,58.20
2023-04-03T11:30:01.198Z,56.11
2023-04-03T11:33:17.299Z,55.49
2023-04-03T11:36:26.271Z,55.27
2023-04-03T11:39:01.216Z,54.33
2023-04-03T11:41:33.340Z,55.26
2023-04-03T11:44:39.209Z,53.50
2023-04-03T11:47:29.054Z,54.22
2023-04-03T11:50:12.280Z,55.30
2023-04-03T11:52:44.756Z,55.08
2023-04-03T11:55:24.545Z,54.21
2023-04-03T11:58:01.163Z,53.85
2023-04-03T12:01:09.499Z,55.20
2023-04-03T12:03:44.156Z,55.07
2023-04-03T12:06:13.058Z,55.95
2023-04-03T12:08:46.833Z,56.16
2023-04-03T12:11:28.874Z,55.18
2023-04-03T12:13:59.012Z,55.02
2023-04-03T12:16:54.608Z,54.32
2023-04-03T12:19:50.226Z,54.21
2023-04-03T12:22:41.290Z,55.10
2023-04-03T12:26:05.505Z,55.58
2023-04-03T12:28:45.522Z,54.21
2023-04-03T12:31:16.949Z,53.81
2023-04-03T12:34:07.375Z,54.38
2023-04-03T12:37:05.566Z,55.24
2023-04-03T12:39:46.008Z,54.88
2023-04-03T12:42:24.809Z,55.84
2023-04-03T12:45:01.524Z,55.30
2023-04-03T12:47:44.339Z,55.38
2023-04-03T12:50:32.040Z,54.78
2023-04-03T12:53:22.671Z,54.18
2023-04-03T12:56:45.369Z,54.02
2023-04-03T12:59:27.737Z,53.76
2023-04-03T13:02:17.737Z,53.06
2023-04-03T13:04:48.020Z,52.40
2023-04-03T13:07:46.154Z,53.37
2023-04-03T13:10:45.795Z,52.66
2023-04-03T13:13:40.613Z,53.25
2023-04-03T13:16:18.746Z,53.16
2023-04-03T13:18:58.687Z,51.63
2023-04-03T13:21:54.792Z,51.08
2023-04-03T13:24:24.103Z,51.75
2023-04-03T13:26:53.617Z,52.02
2023-04-03T13:29:30.926Z,51.20
2023-04-03T13:32:07.931Z,52.14
2023-04-03T13:34:47.217Z,52.34
2023-04-03T13:37:39.214Z,51.54
2023-04-03T13:40:15.236Z,51.79
2023-04-03T13:43:21.493Z,51.71
2023-04-03T13:46:02.973Z,51.64
2023-04-03T13:48:41.572Z,51.54
2023-04-03T13:51:35.070Z,51.43
2023-04-03T13:54:15.874Z,51.18
2023-04-03T13:56:45.477Z,51.69
2023-04-03T13:59:17.810Z,50.95
2023-04-03T14:01:53.146Z,52.06
2023-04-03T14:04:32.616Z,50.61
2023-04-03T14:07:02.750Z,51.05
2023-04-03T14:09:30.285Z,51.73
2023-04-03T14:12:11.330Z,51.54
2023-04-03T14:14:47.085Z,50.77
2023-04-03T14:17:24.631Z,51.47
2023-04-03T14:19:57.667Z,50.86
2023-04-03T14:22:30.990Z,50.85
2023-04-03T14:24:59.020Z,50.73
2023-04-03T14:27:38.802Z,50.97
2023-04-03T14:30:18.410Z,50.55
2023-04-03T14:32:46.776Z,50.55
2023-04-03T14:35:17.021Z,51.15
2023-04-03T14:37:45.410Z,51.15
2023-04-03T14:40:21.085Z,51.05
2023-04-03T14:42:50.438Z,50.74
2023-04-03T14:45:19.984Z,51.47
2023-04-03T14:47:52.568Z,52.34
2023-04-03T14:50:27.169Z,51.78
2023-04-03T14:52:58.490Z,52.55
2023-04-03T14:55:28.343Z,51.58
2023-04-03T14:57:56.623Z,51.48
2023-04-03T15:00:24.709Z,52.22
2023-04-03T15:02:52.520Z,51.80
2023-04-03T15:05:21.187Z,51.72
2023-04-03T15:07:56.605Z,51.85
2023-04-03T15:10:28.749Z,51.88
2023-04-03T15:12:58.841Z,52.38
2023-04-03T15:15:29.702Z,52.49
2023-04-03T15:18:06.094Z,52.60
2023-04-03T15:20:35.117Z,52.73
2023-04-03T15:23:03.434Z,52.76
2023-04-03T15:25:32.917Z,52.64
2023-04-03T15:28:01.731Z,52.02
2023-04-03T15:30:29.882Z,51.30
2023-04-03T15:33:00.650Z,52.06
2023-04-03T15:35:27.931Z,51.36
2023-04-03T15:37:56.239Z,51.05
2023-04-03T15:40:23.791Z,51.64
2023-04-03T15:43:51.605Z,52.12
2023-04-03T15:46:39.908Z,52.65
2023-04-03T15:49:07.939Z,51.10
2023-04-03T15:51:37.768Z,51.85
2023-04-03T15:54:05.790Z,51.45
2023-04-03T15:56:33.418Z,51.43
2023-04-03T15:59:04.990Z,51.48
2023-04-03T16:02:34.681Z,52.21
2023-04-03T16:06:12.107Z,52.57
2023-04-03T16:09:39.111Z,52.45
2023-04-03T16:12:07.193Z,52.56
2023-04-03T16:14:55.232Z,52.72
2023-04-03T16:17:22.602Z,52.63
2023-04-03T16:19:50.710Z,52.57
2023-04-03T16:22:19.285Z,52.54
2023-04-03T16:24:47.687Z,52.80
2023-04-03T16:27:15.405Z,53.49
2023-04-03T16:29:43.025Z,53.14
2023-04-03T16:32:10.645Z,53.63
2023-04-03T16:34:38.406Z,53.29
2023-04-03T16:37:06.218Z,53.04
2023-04-03T16:39:33.957Z,53.06
2023-04-03T16:42:01.635Z,52.88
2023-04-03T16:44:29.198Z,53.49
2023-04-03T16:46:56.765Z,53.55
2023-04-03T16:49:24.788Z,53.47
2023-04-03T16:51:52.625Z,53.68
2023-04-03T16:54:19.890Z,53.90
2023-04-03T16:56:48.342Z,54.64
2023-04-03T16:59:17.198Z,53.78
2023-04-03T17:01:44.651Z,53.88
2023-04-03T17:04:12.653Z,54.26
2023-04-03T17:06:41.632Z,53.78
2023-04-03T17:09:10.832Z,54.37
2023-04-03T17:11:40.719Z,54.52
2023-04-03T17:14:08.446Z,54.07
2023-04-03T17:16:38.875Z,54.16
2023-04-03T17:19:06.870Z,54.34
2023-04-03T17:21:35.151Z,54.72
2023-04-03T17:24:09.842Z,54.63
2023-04-03T17:26:40.622Z,54.63
2023-04-03T17:29:09.346Z,55.08
2023-04-03T17:31:37.499Z,55.01
2023-04-03T17:34:05.371Z,55.15
2023-04-03T17:36:35.765Z,55.11
2023-04-03T17:39:03.319Z,55.31
2023-04-03T17:41:35.848Z,55.27
2023-04-03T17:44:03.876Z,55.73
2023-04-03T17:46:32.601Z,55.74
2023-04-03T17:49:01.664Z,55.51
2023-04-03T17:51:29.789Z,56.37
2023-04-03T17:53:57.847Z,55.82
2023-04-03T17:56:27.727Z,55.64
2023-04-03T17:58:57.177Z,55.86
2023-04-03T18:01:31.034Z,56.14
2023-04-03T18:04:01.663Z,56.47
2023-04-03T18:06:33.487Z,56.53
2023-04-03T18:09:34.542Z,56.56
2023-04-03T18:12:06.345Z,56.46
2023-04-03T18:14:36.639Z,57.02
2023-04-03T18:17:05.216Z,56.77
2023-04-03T18:19:33.701Z,57.03
2023-04-03T18:22:05.845Z,57.00
2023-04-03T18:24:36.880Z,57.35
2023-04-03T18:27:12.460Z,57.18
2023-04-03T18:29:42.868Z,57.18
2023-04-03T18:32:13.867Z,57.76
2023-04-03T18:34:43.755Z,57.32
2023-04-03T18:37:14.124Z,57.89
2023-04-03T18:39:42.147Z,57.83
2023-04-03T18:42:17.345Z,58.09
2023-04-03T18:44:52.564Z,57.93
2023-04-03T18:47:21.104Z,58.36
2023-04-03T18:49:50.073Z,58.31
2023-04-03T18:52:18.218Z,58.03
2023-04-03T18:54:46.220Z,58.40
2023-04-03T18:57:14.532Z,58.69
2023-04-03T18:59:42.700Z,58.63
2023-04-03T19:02:13.240Z,58.79
2023-04-03T19:04:41.623Z,58.88
2023-04-03T19:07:12.678Z,58.70
2023-04-03T19:09:41.796Z,58.88
2023-04-03T19:12:10.320Z,58.73
2023-04-03T19:14:38.910Z,58.85
2023-04-03T19:17:09.120Z,59.10
2023-04-03T19:19:37.304Z,58.62
2023-04-03T19:22:05.717Z,58.69
2023-04-03T19:24:34.821Z,58.61
2023-04-03T19:27:03.613Z,59.28
2023-04-03T19:29:32.107Z,59.09
2023-04-03T19:32:02.674Z,59.17
2023-04-03T19:34:34.132Z,59.31
2023-04-03T19:37:03.659Z,59.40
2023-04-03T19:39:36.142Z,59.43
2023-04-03T19:42:05.633Z,59.62
2023-04-03T19:44:36.383Z,59.36
2023-04-03T19:47:08.523Z,59.57
2023-04-03T19:49:36.658Z,59.58
2023-04-03T19:52:07.777Z,60.11
2023-04-03T19:54:36.916Z,60.19
2023-04-03T19:57:05.591Z,59.97
2023-04-03T19:59:33.864Z,59.98
2023-04-03T20:02:07.592Z,59.97
2023-04-03T20:04:36.445Z,60.31
2023-04-03T20:07:06.279Z,60.50
2023-04-03T20:09:36.500Z,60.68
2023-04-03T20:12:06.644Z,60.52
2023-04-03T20:14:34.476Z,60.39
2023-04-03T20:17:02.582Z,60.50
2023-04-03T20:19:31.522Z,61.05
2023-04-03T20:22:01.889Z,61.30
2023-04-03T20:24:29.358Z,60.85
2023-04-03T20:26:58.971Z,61.19
2023-04-03T20:29:27.350Z,60.98
2023-04-03T20:31:55.590Z,61.21
2023-04-03T20:34:23.079Z,61.33
2023-04-03T20:36:50.680Z,61.07
2023-04-03T20:39:19.687Z,61.39
2023-04-03T20:41:47.529Z,61.10
2023-04-03T20:44:15.861Z,61.15
2023-04-03T20:46:52.845Z,61.37
2023-04-03T20:49:22.224Z,61.62
2023-04-03T20:51:51.646Z,62.02
2023-04-03T20:54:19.648Z,61.59
2023-04-03T20:56:50.647Z,62.03
2023-04-03T20:59:18.842Z,61.94
2023-04-03T21:01:47.328Z,62.16
2023-04-03T21:04:49.559Z,62.34
2023-04-03T21:07:54.967Z,61.94
2023-04-03T21:10:59.987Z,61.71
2023-04-03T21:14:06.024Z,61.79
2023-04-03T21:16:33.186Z,62.26
2023-04-03T21:19:29.008Z,61.92
2023-04-03T21:21:59.973Z,61.87
2023-04-03T21:24:27.634Z,62.15
2023-04-03T21:26:58.409Z,62.28
2023-04-03T21:29:25.830Z,62.40
2023-04-03T21:31:54.745Z,62.10
2023-04-03T21:34:26.429Z,62.33
2023-04-03T21:36:55.392Z,62.19
2023-04-03T21:39:23.523Z,62.12
2023-04-03T21:41:52.388Z,62.20
2023-04-03T21:44:21.180Z,62.14
2023-04-03T21:46:49.791Z,62.77
2023-04-03T21:49:17.562Z,62.60
2023-04-03T21:51:45.412Z,63.07
2023-04-03T21:54:12.748Z,62.74
2023-04-03T21:56:39.937Z,62.89
2023-04-03T21:59:07.809Z,62.81
2023-04-03T22:01:35.120Z,62.85
2023-04-03T22:04:03.360Z,63.18
2023-04-03T22:06:31.274Z,62.89
2023-04-03T22:08:59.342Z,63.08
2023-04-03T22:11:27.575Z,62.77
2023-04-03T22:13:56.397Z,63.54
2023-04-03T22:16:24.323Z,63.08
2023-04-03T22:18:55.452Z,63.05
2023-04-03T22:21:23.640Z,63.33
2023-04-03T22:23:51.158Z,63.00
2023-04-03T22:26:18.413Z,63.52
2023-04-03T22:28:48.180Z,63.56
2023-04-03T22:31:16.958Z,63.65
2023-04-03T22:33:46.185Z,63.88
2023-04-03T22:36:14.623Z,63.42
2023-04-03T22:38:47.225Z,63.72
2023-04-03T22:41:14.934Z,63.77
2023-04-03T22:43:42.997Z,64.23
2023-04-03T22:46:10.561Z,64.04
2023-04-03T22:48:39.116Z,63.65
2023-04-03T22:51:10.023Z,64.18
2023-04-03T22:53:37.579Z,64.24
2023-04-03T22:56:11.513Z,64.37
2023-04-03T22:58:39.379Z,64.44
2023-04-03T23:01:14.631Z,64.19
2023-04-03T23:03:43.074Z,64.21
2023-04-03T23:06:11.256Z,64.73
2023-04-03T23:08:39.297Z,65.09
2023-04-03T23:11:15.687Z,64.69
2023-04-03T23:13:44.601Z,64.68
2023-04-03T23:16:12.395Z,65.02
2023-04-03T23:18:40.215Z,65.12
2023-04-03T23:21:09.354Z,64.58
2023-04-03T23:23:36.814Z,65.18
2023-04-03T23:26:04.192Z,64.71
2023-04-03T23:28:32.006Z,64.69
2023-04-03T23:31:06.101Z,65.22
2023-04-03T23:33:34.182Z,65.23
2023-04-03T23:36:08.246Z,65.39
2023-04-03T23:38:36.815Z,65.17
2023-04-03T23:41:04.158Z,65.58
2023-04-03T23:43:32.354Z,65.83
2023-04-03T23:46:00.240Z,65.14
2023-04-03T23:48:27.534Z,66.04
2023-04-03T23:50:54.736Z,65.99
2023-04-03T23:53:22.263Z,66.24
2023-04-03T23:55:49.467Z,66.21
2023-04-03T23:58:16.757Z,66.05
